createdAt,value
2022-11-20T00:00:58.291Z,-1.40
2022-11-20T00:03:26.158Z,-1.30
2022-11-20T00:05:54.076Z,-1.20
2022-11-20T00:08:22.074Z,-1.20
2022-11-20T00:10:49.930Z,-1.10
2022-11-20T00:13:17.812Z,-1.20
2022-11-20T00:15:45.694Z,-1.20
2022-11-20T00:18:14.891Z,-1.10
2022-11-20T00:20:42.728Z,-1.00
2022-11-20T00:23:10.585Z,-1.00
2022-11-20T00:25:38.569Z,-1.10
2022-11-20T00:28:06.481Z,-1.20
2022-11-20T00:30:34.425Z,-1.30
2022-11-20T00:33:02.301Z,-1.30
2022-11-20T00:35:31.760Z,-1.30
2022-11-20T00:37:59.668Z,-1.20
2022-11-20T00:40:27.516Z,-1.30
2022-11-20T00:42:55.392Z,-1.30
2022-11-20T00:45:23.433Z,-1.40
2022-11-20T00:47:51.321Z,-1.40
2022-11-20T00:50:19.188Z,-1.50
2022-11-20T00:52:48.379Z,-1.50
2022-11-20T00:55:16.515Z,-1.50
2022-11-20T00:57:44.421Z,-1.50
2022-11-20T01:00:12.811Z,-1.50
2022-11-20T01:02:40.680Z,-1.50
2022-11-20T01:05:08.992Z,-1.50
2022-11-20T01:07:36.995Z,-1.60
2022-11-20T01:10:07.257Z,-1.60
2022-11-20T01:12:35.090Z,-1.70
2022-11-20T01:15:02.980Z,-1.70
2022-11-20T01:17:30.860Z,-1.70
2022-11-20T01:19:58.697Z,-1.70
2022-11-20T01:22:26.572Z,-1.70
2022-11-20T01:24:54.444Z,-1.60
2022-11-20T01:27:23.639Z,-1.60
2022-11-20T01:29:51.488Z,-1.60
2022-11-20T01:32:19.348Z,-1.60
2022-11-20T01:34:47.243Z,-1.60
2022-11-20T01:37:15.071Z,-1.60
2022-11-20T01:39:42.931Z,-1.70
2022-11-20T01:42:28.131Z,-1.70
2022-11-20T01:44:59.741Z,-1.80
2022-11-20T01:47:35.644Z,-1.80
2022-11-20T01:50:08.270Z,-1.80
2022-11-20T01:52:40.170Z,-1.90
2022-11-20T01:55:11.144Z,-1.90
2022-11-20T01:57:40.646Z,-1.90
2022-11-20T02:00:14.083Z,-1.90
2022-11-20T02:02:44.994Z,-1.90
2022-11-20T02:05:20.459Z,-1.90
2022-11-20T02:07:49.838Z,-1.80
2022-11-20T02:10:17.932Z,-1.70
2022-11-20T02:13:03.284Z,-1.70
2022-11-20T02:15:34.153Z,-1.80
2022-11-20T02:18:02.356Z,-1.80
2022-11-20T02:20:30.447Z,-1.80
2022-11-20T02:23:01.941Z,-1.70
2022-11-20T02:25:33.141Z,-1.70
2022-11-20T02:28:01.024Z,-1.80
2022-11-20T02:30:28.957Z,-1.80
2022-11-20T02:32:56.816Z,-1.80
2022-11-20T02:35:46.107Z,-1.80
2022-11-20T02:38:15.030Z,-1.80
2022-11-20T02:40:44.284Z,-1.90
2022-11-20T02:43:12.206Z,-1.90
2022-11-20T02:45:40.425Z,-1.90
2022-11-20T02:48:09.355Z,-1.90
2022-11-20T02:50:40.625Z,-1.90
2022-11-20T02:53:08.723Z,-2.00
2022-11-20T02:55:37.226Z,-2.00
2022-11-20T02:58:06.601Z,-2.10
2022-11-20T03:00:34.673Z,-2.10
2022-11-20T03:03:02.587Z,-2.10
2022-11-20T03:05:30.464Z,-2.10
2022-11-20T03:07:58.429Z,-2.10
2022-11-20T03:10:26.351Z,-2.10
2022-11-20T03:12:56.278Z,-2.10
2022-11-20T03:15:26.105Z,-2.00
2022-11-20T03:17:56.562Z,-2.00
2022-11-20T03:20:24.905Z,-2.00
2022-11-20T03:22:52.812Z,-2.00
2022-11-20T03:25:20.745Z,-2.00
2022-11-20T03:27:48.620Z,-1.90
2022-11-20T03:30:16.934Z,-2.00
2022-11-20T03:32:46.209Z,-2.10
2022-11-20T03:35:14.197Z,-2.10
2022-11-20T03:37:42.091Z,-2.10
2022-11-20T03:40:11.118Z,-2.10
2022-11-20T03:42:47.728Z,-2.10
2022-11-20T03:45:16.395Z,-2.00
2022-11-20T03:47:44.423Z,-2.00
2022-11-20T03:50:15.221Z,-2.00
2022-11-20T03:52:43.402Z,-1.90
2022-11-20T03:55:11.470Z,-1.90
2022-11-20T03:57:39.379Z,-1.90
2022-11-20T04:00:08.459Z,-1.90
2022-11-20T04:02:36.421Z,-1.90
2022-11-20T04:05:04.364Z,-1.80
2022-11-20T04:07:35.729Z,-1.80
2022-11-20T04:10:03.678Z,-1.70
2022-11-20T04:12:34.383Z,-1.80
2022-11-20T04:15:02.703Z,-1.80
2022-11-20T04:17:30.576Z,-1.80
2022-11-20T04:19:58.403Z,-1.90
2022-11-20T04:22:26.248Z,-1.90
2022-11-20T04:24:55.458Z,-1.90
2022-11-20T04:27:23.377Z,-2.00
2022-11-20T04:29:51.281Z,-2.00
2022-11-20T04:32:19.182Z,-2.00
2022-11-20T04:34:47.074Z,-2.00
2022-11-20T04:37:15.003Z,-2.00
2022-11-20T04:39:43.058Z,-2.00
2022-11-20T04:42:30.740Z,-2.00
2022-11-20T04:45:00.232Z,-2.10
2022-11-20T04:47:28.132Z,-2.10
2022-11-20T04:49:56.122Z,-2.10
2022-11-20T04:52:24.003Z,-2.10
2022-11-20T04:54:53.738Z,-2.10
2022-11-20T04:57:23.146Z,-2.10
2022-11-20T04:59:50.987Z,-2.10
2022-11-20T05:02:19.080Z,-2.10
2022-11-20T05:04:46.908Z,-2.20
2022-11-20T05:07:14.852Z,-2.20
2022-11-20T05:09:42.743Z,-2.20
2022-11-20T05:12:10.985Z,-2.20
2022-11-20T05:14:40.168Z,-2.20
2022-11-20T05:17:08.052Z,-2.20
2022-11-20T05:19:35.914Z,-2.30
2022-11-20T05:22:03.782Z,-2.30
2022-11-20T05:24:31.572Z,-2.30
2022-11-20T05:26:59.400Z,-2.30
2022-11-20T05:29:27.244Z,-2.20
2022-11-20T05:31:56.472Z,-2.10
2022-11-20T05:34:24.364Z,-2.20
2022-11-20T05:36:52.302Z,-2.20
2022-11-20T05:39:20.402Z,-2.20
2022-11-20T05:42:08.459Z,-2.30
2022-11-20T05:44:36.360Z,-2.30
2022-11-20T05:47:05.643Z,-2.30
2022-11-20T05:49:33.814Z,-2.30
2022-11-20T05:52:01.741Z,-2.30
2022-11-20T05:54:29.604Z,-2.30
2022-11-20T05:56:57.466Z,-2.20
2022-11-20T05:59:25.332Z,-2.20
2022-11-20T06:01:53.344Z,-2.10
2022-11-20T06:04:22.632Z,-2.10
2022-11-20T06:06:50.518Z,-2.10
2022-11-20T06:09:18.514Z,-2.10
2022-11-20T06:11:46.606Z,-2.20
2022-11-20T06:14:14.523Z,-2.30
2022-11-20T06:16:42.451Z,-2.30
2022-11-20T06:19:10.308Z,-2.30
2022-11-20T06:21:39.624Z,-2.30
2022-11-20T06:24:08.181Z,-2.30
2022-11-20T06:26:36.101Z,-2.40
2022-11-20T06:29:04.102Z,-2.40
2022-11-20T06:31:33.755Z,-2.50
2022-11-20T06:34:01.640Z,-2.50
2022-11-20T06:36:29.440Z,-2.50
2022-11-20T06:38:58.613Z,-2.50
2022-11-20T06:41:26.519Z,-2.50
2022-11-20T06:43:54.597Z,-2.50
2022-11-20T06:46:23.256Z,-2.50
2022-11-20T06:48:51.867Z,-2.50
2022-11-20T06:51:20.427Z,-2.40
2022-11-20T06:53:48.247Z,-2.40
2022-11-20T06:56:17.491Z,-2.40
2022-11-20T06:58:45.339Z,-2.30
2022-11-20T07:01:14.853Z,-2.30
2022-11-20T07:03:43.615Z,-2.30
2022-11-20T07:06:11.895Z,-2.30
2022-11-20T07:08:40.069Z,-2.20
2022-11-20T07:11:08.972Z,-2.20
2022-11-20T07:13:38.215Z,-2.20
2022-11-20T07:16:09.725Z,-2.20
2022-11-20T07:18:38.165Z,-2.20
2022-11-20T07:21:08.233Z,-2.30
2022-11-20T07:23:36.328Z,-2.30
2022-11-20T07:26:05.987Z,-2.20
2022-11-20T07:28:33.944Z,-2.20
2022-11-20T07:31:03.558Z,-2.20
2022-11-20T07:33:31.538Z,-2.20
2022-11-20T07:36:01.146Z,-2.10
2022-11-20T07:38:29.134Z,-2.10
2022-11-20T07:40:58.385Z,-2.00
2022-11-20T07:43:27.023Z,-1.90
2022-11-20T07:45:57.197Z,-1.80
2022-11-20T07:48:26.962Z,-1.70
2022-11-20T07:50:56.657Z,-1.70
2022-11-20T07:53:24.563Z,-1.60
2022-11-20T07:55:53.358Z,-1.60
2022-11-20T07:58:21.511Z,-1.50
2022-11-20T08:00:49.474Z,-1.50
2022-11-20T08:03:23.165Z,-1.50
2022-11-20T08:05:53.992Z,-1.50
2022-11-20T08:08:22.049Z,-1.50
2022-11-20T08:10:49.927Z,-1.40
2022-11-20T08:13:49.517Z,-1.40
2022-11-20T08:16:17.408Z,-1.40
2022-11-20T08:18:45.256Z,-1.40
2022-11-20T08:21:14.487Z,-1.30
2022-11-20T08:23:42.466Z,-1.30
2022-11-20T08:26:10.374Z,-1.30
2022-11-20T08:28:38.265Z,-1.20
2022-11-20T08:31:06.603Z,-1.20
2022-11-20T08:33:34.508Z,-1.20
2022-11-20T08:36:03.268Z,-1.20
2022-11-20T08:38:33.177Z,-1.20
2022-11-20T08:41:18.833Z,-1.10
2022-11-20T08:43:46.681Z,-1.10
2022-11-20T08:46:15.004Z,-1.10
2022-11-20T08:48:42.883Z,-1.10
2022-11-20T08:51:11.541Z,-1.10
2022-11-20T08:53:41.126Z,-1.10
2022-11-20T08:56:10.515Z,-1.00
2022-11-20T08:59:01.783Z,-1.00
2022-11-20T09:01:26.747Z,-1.00
2022-11-20T09:03:56.731Z,-0.90
2022-11-20T09:06:24.906Z,-0.90
2022-11-20T09:08:55.727Z,-0.90
2022-11-20T09:11:23.806Z,-0.80
2022-11-20T09:13:51.984Z,-0.80
2022-11-20T09:16:19.817Z,-0.80
2022-11-20T09:18:53.947Z,-0.70
2022-11-20T09:21:29.957Z,-0.70
2022-11-20T09:23:59.149Z,-0.60
2022-11-20T09:26:27.022Z,-0.60
2022-11-20T09:28:58.119Z,-0.60
2022-11-20T09:31:27.470Z,-0.60
2022-11-20T09:33:55.639Z,-0.60
2022-11-20T09:36:23.546Z,-0.60
2022-11-20T09:38:51.387Z,-0.60
2022-11-20T09:41:37.514Z,-0.50
2022-11-20T09:44:18.630Z,-0.50
2022-11-20T09:46:53.865Z,-0.40
2022-11-20T09:49:32.775Z,-0.40
2022-11-20T09:52:08.458Z,-0.30
2022-11-20T09:54:39.841Z,-0.30
2022-11-20T09:57:14.481Z,-0.20
2022-11-20T09:59:44.603Z,-0.20
2022-11-20T10:02:21.848Z,-0.20
2022-11-20T10:04:55.232Z,-0.10
2022-11-20T10:07:32.753Z,-0.10
2022-11-20T10:10:01.721Z,-0.10
2022-11-20T10:12:39.248Z,-0.10
2022-11-20T10:15:20.649Z,-0.10
2022-11-20T10:18:11.459Z,0.00
2022-11-20T10:20:48.346Z,0.00
2022-11-20T10:23:33.587Z,0.10
2022-11-20T10:26:04.988Z,0.10
2022-11-20T10:28:55.416Z,0.10
2022-11-20T10:31:33.059Z,0.10
2022-11-20T10:34:16.940Z,0.20
2022-11-20T10:36:51.909Z,0.20
2022-11-20T10:39:26.735Z,0.20
2022-11-20T10:41:55.213Z,0.30
2022-11-20T10:44:45.789Z,0.20
2022-11-20T10:47:16.520Z,0.30
2022-11-20T10:49:48.411Z,0.30
2022-11-20T10:52:25.452Z,0.40
2022-11-20T10:55:04.518Z,0.40
2022-11-20T10:57:54.885Z,0.40
2022-11-20T11:00:24.210Z,0.40
2022-11-20T11:02:54.080Z,0.50
2022-11-20T11:05:38.070Z,0.50
2022-11-20T11:08:09.782Z,0.60
2022-11-20T11:10:45.429Z,0.60
2022-11-20T11:13:22.482Z,0.60
2022-11-20T11:15:52.107Z,0.60
2022-11-20T11:18:27.795Z,0.60
2022-11-20T11:20:57.135Z,0.70
2022-11-20T11:23:33.801Z,0.70
2022-11-20T11:26:03.873Z,0.80
2022-11-20T11:28:31.800Z,0.80
2022-11-20T11:31:01.074Z,0.80
2022-11-20T11:33:30.479Z,0.90
2022-11-20T11:36:01.175Z,0.90
2022-11-20T11:38:33.306Z,0.90
2022-11-20T11:41:01.712Z,1.00
2022-11-20T11:43:50.802Z,1.00
2022-11-20T11:46:31.199Z,1.00
2022-11-20T11:49:00.359Z,1.00
2022-11-20T11:51:34.704Z,1.10
2022-11-20T11:54:05.354Z,1.10
2022-11-20T11:56:35.603Z,1.10
2022-11-20T11:59:12.749Z,1.10
2022-11-20T12:01:50.070Z,1.10
2022-11-20T12:04:23.132Z,1.10
2022-11-20T12:06:55.553Z,1.10
2022-11-20T12:09:29.457Z,1.10
2022-11-20T12:12:05.467Z,1.10
2022-11-20T12:14:38.183Z,1.20
2022-11-20T12:17:09.682Z,1.20
2022-11-20T12:19:38.602Z,1.20
2022-11-20T12:22:18.305Z,1.30
2022-11-20T12:24:54.447Z,1.30
2022-11-20T12:27:43.040Z,1.40
2022-11-20T12:30:12.637Z,1.40
2022-11-20T12:33:26.488Z,1.50
2022-11-20T12:36:08.620Z,1.50
2022-11-20T12:38:54.812Z,1.50
2022-11-20T12:41:51.880Z,1.60
2022-11-20T12:44:48.854Z,1.60
2022-11-20T12:47:25.890Z,1.70
2022-11-20T12:50:04.389Z,1.70
2022-11-20T12:52:48.310Z,1.70
2022-11-20T12:55:27.493Z,1.70
2022-11-20T12:58:00.229Z,1.70
2022-11-20T13:00:28.658Z,1.80
2022-11-20T13:03:41.825Z,1.80
2022-11-20T13:06:17.714Z,1.80
2022-11-20T13:08:50.482Z,1.80
2022-11-20T13:11:26.942Z,1.80
2022-11-20T13:14:11.160Z,1.80
2022-11-20T13:16:47.242Z,1.80
2022-11-20T13:19:17.446Z,1.80
2022-11-20T13:21:50.237Z,1.80
2022-11-20T13:24:31.101Z,1.80
2022-11-20T13:27:03.381Z,1.80
2022-11-20T13:29:32.270Z,1.90
2022-11-20T13:32:08.186Z,1.90
2022-11-20T13:34:37.951Z,1.90
2022-11-20T13:37:07.456Z,1.90
2022-11-20T13:39:37.390Z,2.00
2022-11-20T13:42:23.764Z,2.00
2022-11-20T13:44:56.586Z,2.00
2022-11-20T13:47:26.553Z,2.10
2022-11-20T13:49:56.311Z,2.10
2022-11-20T13:52:47.307Z,2.10
2022-11-20T13:55:21.579Z,2.10
2022-11-20T13:58:18.436Z,2.10
2022-11-20T14:00:50.399Z,2.20
2022-11-20T14:03:37.874Z,2.20
2022-11-20T14:06:16.668Z,2.20
2022-11-20T14:08:49.289Z,2.20
2022-11-20T14:11:19.117Z,2.20
2022-11-20T14:14:01.709Z,2.30
2022-11-20T14:16:31.835Z,2.30
2022-11-20T14:19:18.754Z,2.30
2022-11-20T14:21:47.086Z,2.30
2022-11-20T14:24:21.125Z,2.30
2022-11-20T14:26:50.146Z,2.20
2022-11-20T14:29:19.883Z,2.20
2022-11-20T14:31:53.834Z,2.20
2022-11-20T14:34:25.264Z,2.20
2022-11-20T14:36:57.604Z,2.20
2022-11-20T14:39:32.455Z,2.20
2022-11-20T14:42:00.397Z,2.20
2022-11-20T14:44:31.354Z,2.30
2022-11-20T14:47:00.280Z,2.30
2022-11-20T14:49:28.752Z,2.30
2022-11-20T14:52:01.647Z,2.30
2022-11-20T14:54:31.681Z,2.30
2022-11-20T14:57:02.409Z,2.30
2022-11-20T14:59:32.143Z,2.30
2022-11-20T15:02:03.292Z,2.30
2022-11-20T15:04:32.026Z,2.30
2022-11-20T15:07:01.601Z,2.30
2022-11-20T15:09:30.999Z,2.30
2022-11-20T15:12:00.920Z,2.30
2022-11-20T15:14:30.942Z,2.30
2022-11-20T15:16:58.991Z,2.30
2022-11-20T15:19:28.598Z,2.30
2022-11-20T15:21:56.479Z,2.30
2022-11-20T15:24:24.618Z,2.30
2022-11-20T15:26:54.136Z,2.30
2022-11-20T15:29:24.558Z,2.30
2022-11-20T15:31:53.673Z,2.30
2022-11-20T15:34:21.971Z,2.30
2022-11-20T15:36:50.213Z,2.30
2022-11-20T15:39:18.897Z,2.30
2022-11-20T15:41:46.910Z,2.30
2022-11-20T15:44:16.143Z,2.30
2022-11-20T15:46:47.300Z,2.30
2022-11-20T15:49:17.428Z,2.30
2022-11-20T15:51:48.564Z,2.20
2022-11-20T15:54:18.773Z,2.20
2022-11-20T15:56:46.669Z,2.20
2022-11-20T15:59:16.457Z,2.20
2022-11-20T16:01:44.562Z,2.20
2022-11-20T16:04:13.401Z,2.20
2022-11-20T16:06:41.419Z,2.20
2022-11-20T16:09:10.346Z,2.20
2022-11-20T16:11:38.472Z,2.20
2022-11-20T16:14:24.394Z,2.20
2022-11-20T16:16:54.014Z,2.20
2022-11-20T16:19:22.038Z,2.20
2022-11-20T16:21:49.973Z,2.20
2022-11-20T16:24:18.216Z,2.20
2022-11-20T16:26:46.095Z,2.20
2022-11-20T16:29:14.087Z,2.20
2022-11-20T16:31:42.062Z,2.20
2022-11-20T16:34:12.608Z,2.20
2022-11-20T16:36:42.220Z,2.20
2022-11-20T16:39:10.175Z,2.20
2022-11-20T16:41:38.255Z,2.20
2022-11-20T16:44:10.128Z,2.30
2022-11-20T16:46:38.235Z,2.30
2022-11-20T16:49:07.484Z,2.30
2022-11-20T16:51:37.489Z,2.30
2022-11-20T16:54:07.412Z,2.30
2022-11-20T16:56:35.329Z,2.30
2022-11-20T16:59:03.824Z,2.30
2022-11-20T17:01:32.852Z,2.30
2022-11-20T17:04:02.384Z,2.30
2022-11-20T17:06:32.131Z,2.30
2022-11-20T17:09:01.436Z,2.30
2022-11-20T17:11:29.877Z,2.30
2022-11-20T17:14:00.413Z,2.30
2022-11-20T17:16:28.388Z,2.30
2022-11-20T17:19:01.224Z,2.30
2022-11-20T17:21:30.743Z,2.30
2022-11-20T17:24:03.787Z,2.30
2022-11-20T17:26:32.145Z,2.20
2022-11-20T17:29:01.921Z,2.20
2022-11-20T17:31:31.913Z,2.30
2022-11-20T17:34:00.441Z,2.30
2022-11-20T17:36:29.621Z,2.30
2022-11-20T17:38:57.768Z,2.30
2022-11-20T17:41:28.664Z,2.30
2022-11-20T17:43:57.617Z,2.20
2022-11-20T17:46:27.564Z,2.20
2022-11-20T17:48:56.865Z,2.20
2022-11-20T17:51:26.953Z,2.20
2022-11-20T17:53:56.911Z,2.20
2022-11-20T17:56:43.949Z,2.20
2022-11-20T17:59:13.488Z,2.20
2022-11-20T18:01:43.055Z,2.20
2022-11-20T18:04:11.364Z,2.20
2022-11-20T18:06:39.725Z,2.20
2022-11-20T18:09:08.175Z,2.30
2022-11-20T18:11:39.561Z,2.30
2022-11-20T18:14:32.645Z,2.30
2022-11-20T18:17:02.552Z,2.30
2022-11-20T18:19:33.261Z,2.30
2022-11-20T18:22:01.768Z,2.30
2022-11-20T18:24:29.901Z,2.30
2022-11-20T18:26:59.744Z,2.30
2022-11-20T18:29:28.350Z,2.30
2022-11-20T18:31:56.343Z,2.30
2022-11-20T18:34:24.553Z,2.30
2022-11-20T18:36:53.143Z,2.30
2022-11-20T18:39:21.148Z,2.30
2022-11-20T18:42:06.380Z,2.30
2022-11-20T18:44:54.907Z,2.30
2022-11-20T18:47:24.977Z,2.30
2022-11-20T18:49:54.515Z,2.40
2022-11-20T18:52:24.160Z,2.40
2022-11-20T18:54:52.543Z,2.40
2022-11-20T18:57:21.760Z,2.40
2022-11-20T18:59:51.095Z,2.50
2022-11-20T19:02:21.055Z,2.50
2022-11-20T19:04:49.253Z,2.50
2022-11-20T19:07:17.281Z,2.50
2022-11-20T19:09:46.421Z,2.50
2022-11-20T19:12:14.864Z,2.50
2022-11-20T19:14:42.770Z,2.50
2022-11-20T19:17:12.823Z,2.50
2022-11-20T19:19:40.749Z,2.50
2022-11-20T19:22:09.328Z,2.60
2022-11-20T19:24:37.171Z,2.50
2022-11-20T19:27:05.175Z,2.50
2022-11-20T19:29:33.005Z,2.50
2022-11-20T19:32:01.406Z,2.50
2022-11-20T19:34:30.585Z,2.50
2022-11-20T19:36:58.731Z,2.50
2022-11-20T19:39:26.910Z,2.50
2022-11-20T19:41:55.045Z,2.50
2022-11-20T19:44:22.900Z,2.50
2022-11-20T19:46:51.264Z,2.40
2022-11-20T19:49:19.351Z,2.40
2022-11-20T19:51:50.965Z,2.40
2022-11-20T19:54:19.161Z,2.40
2022-11-20T19:56:48.789Z,2.40
2022-11-20T19:59:16.852Z,2.40
2022-11-20T20:01:45.007Z,2.30
2022-11-20T20:04:12.937Z,2.30
2022-11-20T20:06:41.693Z,2.20
2022-11-20T20:09:12.914Z,2.20
2022-11-20T20:11:41.589Z,2.20
2022-11-20T20:14:13.502Z,2.20
2022-11-20T20:16:41.659Z,2.20
2022-11-20T20:19:13.089Z,2.10
2022-11-20T20:21:41.344Z,2.10
2022-11-20T20:24:11.798Z,2.00
2022-11-20T20:26:39.893Z,2.00
2022-11-20T20:29:07.970Z,2.00
2022-11-20T20:31:36.319Z,2.00
2022-11-20T20:34:05.972Z,2.00
2022-11-20T20:36:34.119Z,2.00
2022-11-20T20:39:02.710Z,2.00
2022-11-20T20:41:32.574Z,2.00
2022-11-20T20:44:17.895Z,2.00
2022-11-20T20:46:45.748Z,2.00
2022-11-20T20:49:13.624Z,1.90
2022-11-20T20:51:41.519Z,1.90
2022-11-20T20:54:09.474Z,1.90
2022-11-20T20:56:38.715Z,1.90
2022-11-20T20:59:06.624Z,2.00
2022-11-20T21:01:34.982Z,2.00
2022-11-20T21:04:02.861Z,2.00
2022-11-20T21:06:30.784Z,2.00
2022-11-20T21:08:58.792Z,2.00
2022-11-20T21:11:26.646Z,2.00
2022-11-20T21:13:56.004Z,2.00
2022-11-20T21:16:25.004Z,2.10
2022-11-20T21:18:52.871Z,2.10
2022-11-20T21:21:38.354Z,2.10
2022-11-20T21:24:06.940Z,2.10
2022-11-20T21:26:34.790Z,2.10
2022-11-20T21:29:04.035Z,2.00
2022-11-20T21:31:31.951Z,2.10
2022-11-20T21:34:01.056Z,2.10
2022-11-20T21:36:31.118Z,2.00
2022-11-20T21:39:00.382Z,2.00
2022-11-20T21:41:30.564Z,2.00
2022-11-20T21:46:49.239Z,2.00
2022-11-20T21:49:18.246Z,2.00
2022-11-20T21:51:46.146Z,2.00
2022-11-20T21:54:14.048Z,2.00
2022-11-20T21:56:41.912Z,1.90
2022-11-20T21:59:13.002Z,1.90
2022-11-20T22:01:41.579Z,1.90
2022-11-20T22:04:16.048Z,1.90
2022-11-20T22:06:43.949Z,2.00
2022-11-20T22:09:12.150Z,2.00
2022-11-20T22:11:40.032Z,2.00
2022-11-20T22:14:22.652Z,2.00
2022-11-20T22:16:52.499Z,2.00
2022-11-20T22:19:23.169Z,2.00
2022-11-20T22:21:51.815Z,2.00
2022-11-20T22:24:22.008Z,2.00
2022-11-20T22:26:50.535Z,2.00
2022-11-20T22:29:20.742Z,2.00
2022-11-20T22:31:49.001Z,2.00
2022-11-20T22:34:16.939Z,2.00
2022-11-20T22:36:46.157Z,2.10
2022-11-20T22:39:14.036Z,2.10
2022-11-20T22:41:41.921Z,2.00
2022-11-20T22:44:10.005Z,2.00
2022-11-20T22:46:38.529Z,2.00
2022-11-20T22:49:08.431Z,2.00
2022-11-20T22:51:38.057Z,2.00
2022-11-20T22:54:07.586Z,2.10
2022-11-20T22:56:35.999Z,2.10
2022-11-20T22:59:03.917Z,2.10
2022-11-20T23:01:33.738Z,2.10
2022-11-20T23:04:03.001Z,2.10
2022-11-20T23:06:34.047Z,2.00
2022-11-20T23:09:02.101Z,2.00
2022-11-20T23:11:32.863Z,2.00
2022-11-20T23:14:02.576Z,2.00
2022-11-20T23:16:32.457Z,2.00
2022-11-20T23:19:02.488Z,2.00
2022-11-20T23:21:30.518Z,2.00
2022-11-20T23:23:59.234Z,2.00
2022-11-20T23:26:28.859Z,2.00
2022-11-20T23:28:59.548Z,2.00
2022-11-20T23:31:29.026Z,2.10
2022-11-20T23:33:57.583Z,2.10
2022-11-20T23:36:25.463Z,2.00
2022-11-20T23:38:53.472Z,2.00
2022-11-20T23:41:21.372Z,2.00
2022-11-20T23:43:49.274Z,2.00
2022-11-20T23:46:18.553Z,1.90
2022-11-20T23:48:46.491Z,2.00
2022-11-20T23:51:14.780Z,1.90
2022-11-20T23:53:42.801Z,1.90
2022-11-20T23:56:14.315Z,1.90
2022-11-20T23:58:42.506Z,1.90
